Freeport, Florida
Current Conditions -  °F | °C
As of 10:15 PM on Sunday 23 Nov 2014 (Local Time) from K54J Reporting Station
Overcast Overcast  
Wind Chill: 68°   Ceiling: 300
Heat Index: 68°   Visibility: 10mi
Dew Point: 67°   Wind: 5mph
Humidity: 98%   Direction: 220°SW
Pressure: 29.81"   Gusts: NA
Location:  30.5°N, 86.14°W
Report Text: K54J 240415Z AUTO 22004KT 10SM OVC003 20/20 A2981 RMK AO2 T02000197
Loading
Personal Weather Stations






























Interactive Weather Map New forecast layout! Learn more

10-Day Weather Forecast

Advertisements
Track Severe Weather on mobile